createdAt,value
2019-03-18T00:00:01.070Z,88.71
2019-03-18T00:01:01.059Z,89.02
2019-03-18T00:02:01.052Z,88.81
2019-03-18T00:03:01.182Z,88.87
2019-03-18T00:04:01.061Z,88.71
2019-03-18T00:05:01.061Z,88.71
2019-03-18T00:06:01.049Z,88.77
2019-03-18T00:07:01.043Z,88.71
2019-03-18T00:08:01.001Z,89.12
2019-03-18T00:09:01.052Z,88.60
2019-03-18T00:10:00.996Z,88.60
2019-03-18T00:11:00.949Z,89.02
2019-03-18T00:12:00.938Z,89.23
2019-03-18T00:13:00.935Z,89.23
2019-03-18T00:14:00.913Z,89.43
2019-03-18T00:15:02.075Z,89.54
2019-03-18T00:16:00.901Z,89.12
2019-03-18T00:17:00.953Z,88.92
2019-03-18T00:18:00.870Z,89.75
2019-03-18T00:19:00.936Z,89.79
2019-03-18T00:20:00.920Z,89.37
2019-03-18T00:21:00.931Z,90.00
2019-03-18T00:22:00.902Z,89.79
2019-03-18T00:23:00.861Z,90.83
2019-03-18T00:24:00.836Z,90.72
2019-03-18T00:25:01.830Z,90.83
2019-03-18T00:26:00.824Z,90.41
2019-03-18T00:27:01.240Z,90.52
2019-03-18T00:28:00.815Z,90.52
2019-03-18T00:29:00.794Z,90.83
2019-03-18T00:30:00.747Z,90.31
2019-03-18T00:31:00.753Z,90.62
2019-03-18T00:32:00.721Z,90.77
2019-03-18T00:33:03.246Z,90.56
2019-03-18T00:34:00.737Z,90.62
2019-03-18T00:35:00.690Z,90.93
2019-03-18T00:36:00.685Z,90.87
2019-03-18T00:37:00.680Z,90.83
2019-03-18T00:38:00.669Z,90.83
2019-03-18T00:39:00.704Z,90.20
2019-03-18T00:40:00.636Z,90.10
2019-03-18T00:41:00.621Z,90.31
2019-03-18T00:42:00.620Z,90.97
2019-03-18T00:43:00.631Z,90.77
2019-03-18T00:44:00.592Z,90.87
2019-03-18T00:45:13.756Z,90.83
2019-03-18T00:46:01.584Z,90.56
2019-03-18T00:47:00.567Z,90.77
2019-03-18T00:48:00.586Z,90.77
2019-03-18T00:49:00.580Z,90.35
2019-03-18T00:50:00.603Z,90.66
2019-03-18T00:51:00.778Z,90.45
2019-03-18T00:52:00.584Z,90.66
2019-03-18T00:53:00.494Z,90.77
2019-03-18T00:54:00.535Z,91.22
2019-03-18T00:55:00.478Z,91.33
2019-03-18T00:56:00.535Z,91.53
2019-03-18T00:57:00.510Z,91.64
2019-03-18T00:58:00.459Z,91.53
2019-03-18T00:59:00.430Z,92.06
2019-03-18T01:00:00.451Z,91.85
2019-03-18T01:01:00.409Z,91.85
2019-03-18T01:02:00.402Z,91.96
2019-03-18T01:03:00.525Z,92.00
2019-03-18T01:04:00.397Z,92.27
2019-03-18T01:05:00.397Z,92.10
2019-03-18T01:06:00.441Z,92.41
2019-03-18T01:07:00.381Z,92.68
2019-03-18T01:08:00.340Z,93.04
2019-03-18T01:09:00.438Z,92.52
2019-03-18T01:10:00.358Z,92.52
2019-03-18T01:11:00.298Z,93.14
2019-03-18T01:12:00.292Z,93.04
2019-03-18T01:13:00.329Z,92.93
2019-03-18T01:14:00.279Z,92.83
2019-03-18T01:15:00.431Z,92.83
2019-03-18T01:16:00.251Z,92.72
2019-03-18T01:17:00.240Z,92.83
2019-03-18T01:18:00.266Z,92.72
2019-03-18T01:19:00.306Z,92.93
2019-03-18T01:20:00.299Z,92.79
2019-03-18T01:21:00.402Z,92.79
2019-03-18T01:22:00.189Z,92.47
2019-03-18T01:23:00.225Z,92.27
2019-03-18T01:24:00.177Z,91.96
2019-03-18T01:25:00.375Z,91.81
2019-03-18T01:26:00.140Z,91.91
2019-03-18T01:27:00.384Z,91.50
2019-03-18T01:28:00.160Z,91.39
2019-03-18T01:29:00.121Z,91.39
2019-03-18T01:30:00.376Z,90.93
2019-03-18T01:31:00.100Z,90.93
2019-03-18T01:32:00.216Z,90.72
2019-03-18T01:33:00.266Z,90.62
2019-03-18T01:34:00.066Z,90.62
2019-03-18T01:35:00.107Z,91.04
2019-03-18T01:36:00.037Z,90.83
2019-03-18T01:37:00.076Z,91.04
2019-03-18T01:38:00.015Z,90.93
2019-03-18T01:39:00.042Z,90.93
2019-03-18T01:40:00.029Z,91.18
2019-03-18T01:41:00.005Z,91.04
2019-03-18T01:41:59.990Z,90.83
2019-03-18T01:42:59.991Z,90.83
2019-03-18T01:43:59.961Z,91.08
2019-03-18T01:45:00.267Z,91.08
2019-03-18T01:45:59.947Z,91.28
2019-03-18T01:46:59.932Z,90.97
2019-03-18T01:47:59.925Z,91.28
2019-03-18T01:48:59.902Z,91.28
2019-03-18T01:49:59.887Z,91.08
2019-03-18T01:51:00.327Z,91.39
2019-03-18T01:51:59.870Z,91.28
2019-03-18T01:52:59.853Z,91.50
2019-03-18T01:53:59.857Z,90.97
2019-03-18T01:54:59.836Z,90.66
2019-03-18T01:55:59.899Z,90.93
2019-03-18T01:56:59.912Z,90.62
2019-03-18T01:57:59.814Z,90.31
2019-03-18T01:58:59.866Z,90.83
2019-03-18T01:59:59.781Z,89.89
2019-03-18T02:00:59.778Z,89.79
2019-03-18T02:01:59.763Z,90.00
2019-03-18T02:02:59.785Z,89.79
2019-03-18T02:03:59.757Z,89.48
2019-03-18T02:04:59.733Z,89.79
2019-03-18T02:05:59.713Z,89.89
2019-03-18T02:06:59.705Z,90.00
2019-03-18T02:07:59.716Z,90.00
2019-03-18T02:08:59.856Z,90.00
2019-03-18T02:09:59.710Z,90.10
2019-03-18T02:10:59.665Z,90.10
2019-03-18T02:11:59.663Z,89.89
2019-03-18T02:12:59.659Z,89.89
2019-03-18T02:13:59.629Z,90.00
2019-03-18T02:14:59.740Z,90.25
2019-03-18T02:15:59.622Z,89.89
2019-03-18T02:16:59.624Z,90.97
2019-03-18T02:17:59.678Z,90.83
2019-03-18T02:18:59.632Z,90.83
2019-03-18T02:19:59.564Z,90.83
2019-03-18T02:20:59.879Z,90.45
2019-03-18T02:21:59.545Z,90.45
2019-03-18T02:22:59.537Z,90.45
2019-03-18T02:23:59.545Z,90.97
2019-03-18T02:24:59.519Z,90.87
2019-03-18T02:25:59.501Z,90.87
2019-03-18T02:26:59.718Z,90.35
2019-03-18T02:27:59.483Z,90.04
2019-03-18T02:28:59.466Z,89.94
2019-03-18T02:29:59.545Z,89.73
2019-03-18T02:30:59.453Z,89.79
2019-03-18T02:31:59.461Z,89.48
2019-03-18T02:32:59.577Z,89.58
2019-03-18T02:33:59.423Z,88.96
2019-03-18T02:34:59.426Z,88.64
2019-03-18T02:35:59.394Z,88.64
2019-03-18T02:36:59.390Z,89.10
2019-03-18T02:37:59.389Z,88.85
2019-03-18T02:38:59.428Z,88.75
2019-03-18T02:39:59.353Z,89.17
2019-03-18T02:40:59.342Z,88.64
2019-03-18T02:41:59.336Z,88.54
2019-03-18T02:42:59.333Z,89.06
2019-03-18T02:43:59.320Z,88.64
2019-03-18T02:44:59.598Z,88.54
2019-03-18T02:46:09.877Z,89.27
2019-03-18T02:47:00.276Z,89.17
2019-03-18T02:47:59.307Z,89.27
2019-03-18T02:48:59.273Z,89.06
2019-03-18T02:49:59.245Z,89.37
2019-03-18T02:50:59.340Z,88.85
2019-03-18T02:51:59.272Z,89.06
2019-03-18T02:52:59.219Z,89.17
2019-03-18T02:53:59.204Z,89.62
2019-03-18T02:54:59.204Z,88.89
2019-03-18T02:55:59.183Z,88.75
2019-03-18T02:56:59.290Z,89.06
2019-03-18T02:57:59.188Z,89.27
2019-03-18T02:58:59.208Z,89.20
2019-03-18T02:59:59.151Z,89.20
2019-03-18T03:00:59.151Z,88.89
2019-03-18T03:01:59.135Z,89.52
2019-03-18T03:02:59.156Z,89.41
2019-03-18T03:03:59.119Z,89.41
2019-03-18T03:04:59.091Z,89.83
2019-03-18T03:05:59.082Z,89.83
2019-03-18T03:06:59.079Z,89.83
2019-03-18T03:07:59.076Z,89.94
2019-03-18T03:08:59.199Z,89.83
2019-03-18T03:09:59.045Z,90.04
2019-03-18T03:10:59.024Z,89.94
2019-03-18T03:11:59.020Z,90.19
2019-03-18T03:12:59.007Z,90.19
2019-03-18T03:13:58.988Z,90.14
2019-03-18T03:14:59.021Z,90.56
2019-03-18T03:15:58.979Z,90.19
2019-03-18T03:16:58.966Z,90.08
2019-03-18T03:17:58.966Z,89.83
2019-03-18T03:18:58.934Z,90.04
2019-03-18T03:19:58.929Z,90.50
2019-03-18T03:20:58.955Z,91.02
2019-03-18T03:21:58.904Z,90.91
2019-03-18T03:22:58.901Z,90.81
2019-03-18T03:23:58.910Z,90.91
2019-03-18T03:24:58.869Z,90.60
2019-03-18T03:25:58.878Z,90.81
2019-03-18T03:26:59.142Z,90.60
2019-03-18T03:27:58.852Z,90.60
2019-03-18T03:28:58.826Z,90.70
2019-03-18T03:29:58.816Z,90.81
2019-03-18T03:30:58.832Z,90.70
2019-03-18T03:31:58.791Z,90.70
2019-03-18T03:32:58.910Z,90.70
2019-03-18T03:33:58.851Z,90.60
2019-03-18T03:34:58.786Z,90.81
2019-03-18T03:35:58.753Z,90.35
2019-03-18T03:36:58.739Z,91.12
2019-03-18T03:37:58.734Z,90.35
2019-03-18T03:38:58.854Z,90.35
2019-03-18T03:39:58.751Z,90.97
2019-03-18T03:40:58.743Z,90.87
2019-03-18T03:41:58.701Z,90.87
2019-03-18T03:42:58.692Z,90.91
2019-03-18T03:43:58.674Z,90.39
2019-03-18T03:44:58.862Z,90.45
2019-03-18T03:45:58.697Z,90.81
2019-03-18T03:46:58.633Z,90.91
2019-03-18T03:47:58.646Z,90.39
2019-03-18T03:48:58.621Z,90.81
2019-03-18T03:49:58.625Z,90.81
2019-03-18T03:50:58.635Z,91.02
2019-03-18T03:51:58.589Z,91.12
2019-03-18T03:52:58.581Z,91.75
2019-03-18T03:53:58.561Z,91.16
2019-03-18T03:54:58.560Z,91.33
2019-03-18T03:55:58.550Z,91.47
2019-03-18T03:56:58.662Z,91.37
2019-03-18T03:57:58.515Z,91.58
2019-03-18T03:58:58.521Z,91.85
2019-03-18T03:59:58.504Z,91.85
2019-03-18T04:00:58.485Z,91.53
2019-03-18T04:01:58.478Z,92.10
2019-03-18T04:02:58.502Z,92.16
2019-03-18T04:03:58.464Z,92.06
2019-03-18T04:04:58.458Z,92.06
2019-03-18T04:05:58.439Z,91.78
2019-03-18T04:06:58.418Z,92.10
2019-03-18T04:07:58.410Z,92.16
2019-03-18T04:08:58.521Z,92.06
2019-03-18T04:09:58.413Z,91.43
2019-03-18T04:10:58.385Z,91.75
2019-03-18T04:11:58.376Z,92.00
2019-03-18T04:12:58.378Z,92.16
2019-03-18T04:13:58.362Z,92.22
2019-03-18T04:14:58.393Z,92.16
2019-03-18T04:15:58.325Z,92.06
2019-03-18T04:17:02.618Z,92.27
2019-03-18T04:17:58.321Z,92.06
2019-03-18T04:18:58.294Z,92.16
2019-03-18T04:19:58.282Z,92.06
2019-03-18T04:20:58.428Z,91.85
2019-03-18T04:21:58.282Z,91.96
2019-03-18T04:22:58.250Z,92.58
2019-03-18T04:23:58.248Z,92.89
2019-03-18T04:24:58.267Z,93.20
2019-03-18T04:25:58.223Z,93.10
2019-03-18T04:26:58.264Z,92.89
2019-03-18T04:27:58.206Z,92.89
2019-03-18T04:28:58.182Z,92.89
2019-03-18T04:29:58.193Z,92.89
2019-03-18T04:30:58.161Z,93.10
2019-03-18T04:31:58.155Z,92.99
2019-03-18T04:32:58.281Z,92.79
2019-03-18T04:33:58.126Z,92.58
2019-03-18T04:34:58.117Z,92.79
2019-03-18T04:35:58.148Z,92.95
2019-03-18T04:36:58.094Z,93.05
2019-03-18T04:37:58.085Z,93.05
2019-03-18T04:38:58.191Z,93.05
2019-03-18T04:39:58.069Z,92.95
2019-03-18T04:40:58.056Z,92.74
2019-03-18T04:41:58.064Z,92.54
2019-03-18T04:42:58.041Z,91.91
2019-03-18T04:43:58.094Z,91.77
2019-03-18T04:44:58.656Z,91.71
2019-03-18T04:45:58.003Z,92.18
2019-03-18T04:46:57.997Z,92.08
2019-03-18T04:47:57.979Z,92.18
2019-03-18T04:48:57.974Z,91.97
2019-03-18T04:49:57.976Z,92.08
2019-03-18T04:50:58.072Z,91.62
2019-03-18T04:51:57.940Z,91.52
2019-03-18T04:52:57.932Z,91.83
2019-03-18T04:53:57.992Z,91.93
2019-03-18T04:54:57.931Z,91.72
2019-03-18T04:55:57.902Z,91.99
2019-03-18T04:56:58.010Z,91.89
2019-03-18T04:57:57.894Z,91.27
2019-03-18T04:58:57.870Z,91.58
2019-03-18T04:59:57.854Z,91.33
2019-03-18T05:00:57.838Z,91.33
2019-03-18T05:01:57.831Z,90.87
2019-03-18T05:02:58.058Z,90.77
2019-03-18T05:03:57.890Z,90.56
2019-03-18T05:04:57.805Z,90.56
2019-03-18T05:05:57.792Z,90.45
2019-03-18T05:06:57.782Z,90.56
2019-03-18T05:07:57.764Z,90.66
2019-03-18T05:08:57.881Z,90.00
2019-03-18T05:09:57.752Z,89.89
2019-03-18T05:10:57.772Z,89.69
2019-03-18T05:11:57.752Z,89.69
2019-03-18T05:12:57.733Z,90.20
2019-03-18T05:13:57.788Z,90.00
2019-03-18T05:14:57.733Z,89.79
2019-03-18T05:15:57.686Z,89.11
2019-03-18T05:16:57.669Z,89.48
2019-03-18T05:17:57.658Z,89.06
2019-03-18T05:18:57.647Z,89.42
2019-03-18T05:19:57.637Z,89.48
2019-03-18T05:20:57.906Z,89.06
2019-03-18T05:21:57.617Z,89.27
2019-03-18T05:22:57.606Z,89.21
2019-03-18T05:23:57.600Z,89.17
2019-03-18T05:24:57.589Z,89.31
2019-03-18T05:25:57.570Z,88.44
2019-03-18T05:26:57.685Z,88.54
2019-03-18T05:27:57.566Z,88.44
2019-03-18T05:28:57.539Z,88.85
2019-03-18T05:29:57.527Z,88.75
2019-03-18T05:30:57.523Z,88.34
2019-03-18T05:31:57.505Z,88.34
2019-03-18T05:32:57.551Z,89.06
2019-03-18T05:33:57.540Z,89.17
2019-03-18T05:34:57.521Z,88.75
2019-03-18T05:35:57.499Z,88.34
2019-03-18T05:36:57.475Z,88.54
2019-03-18T05:37:57.460Z,89.27
2019-03-18T05:38:57.558Z,89.27
2019-03-18T05:39:57.431Z,89.17
2019-03-18T05:40:57.425Z,88.71
2019-03-18T05:41:57.402Z,88.85
2019-03-18T05:42:57.424Z,88.71
2019-03-18T05:43:57.413Z,88.82
2019-03-18T05:44:57.501Z,88.51
2019-03-18T05:45:57.358Z,88.71
2019-03-18T05:46:57.363Z,88.71
2019-03-18T05:47:57.337Z,88.40
2019-03-18T05:48:57.396Z,88.61
2019-03-18T05:49:57.319Z,88.71
2019-03-18T05:50:57.343Z,88.92
2019-03-18T05:51:57.302Z,89.03
2019-03-18T05:52:57.290Z,89.03
2019-03-18T05:53:57.303Z,88.71
2019-03-18T05:54:57.268Z,88.51
2019-03-18T05:55:57.477Z,88.71
2019-03-18T05:56:57.276Z,89.23
2019-03-18T05:57:57.230Z,88.82
2019-03-18T05:58:57.219Z,89.75
2019-03-18T05:59:57.241Z,89.75
2019-03-18T06:00:57.253Z,89.54
2019-03-18T06:01:57.208Z,90.58
2019-03-18T06:02:57.267Z,90.48
2019-03-18T06:03:57.166Z,90.37
2019-03-18T06:04:57.161Z,90.37
2019-03-18T06:05:57.148Z,90.27
2019-03-18T06:06:57.149Z,90.27
2019-03-18T06:07:57.136Z,90.58
2019-03-18T06:08:57.145Z,90.58
2019-03-18T06:09:57.170Z,90.12
2019-03-18T06:10:57.094Z,90.23
2019-03-18T06:11:57.086Z,90.58
2019-03-18T06:12:57.088Z,90.54
2019-03-18T06:13:57.056Z,90.23
2019-03-18T06:14:57.085Z,89.81
2019-03-18T06:15:57.046Z,89.92
2019-03-18T06:16:57.032Z,89.40
2019-03-18T06:17:57.025Z,89.29
2019-03-18T06:19:00.077Z,88.94
2019-03-18T06:19:57.003Z,89.09
2019-03-18T06:20:57.213Z,89.09
2019-03-18T06:21:56.978Z,89.19
2019-03-18T06:22:56.957Z,89.61
2019-03-18T06:23:56.971Z,89.81
2019-03-18T06:24:56.952Z,90.39
2019-03-18T06:25:56.929Z,90.60
2019-03-18T06:26:57.064Z,89.98
2019-03-18T06:27:56.904Z,90.33
2019-03-18T06:28:56.897Z,90.54
2019-03-18T06:29:56.890Z,90.19
2019-03-18T06:30:56.867Z,90.44
2019-03-18T06:31:56.858Z,90.50
2019-03-18T06:32:56.893Z,90.50
2019-03-18T06:33:56.836Z,90.60
2019-03-18T06:34:56.824Z,89.87
2019-03-18T06:35:56.816Z,89.67
2019-03-18T06:36:56.808Z,89.77
2019-03-18T06:37:56.925Z,89.67
2019-03-18T06:38:56.826Z,89.46
2019-03-18T06:39:56.799Z,89.56
2019-03-18T06:40:56.789Z,89.56
2019-03-18T06:41:56.788Z,89.98
2019-03-18T06:42:56.745Z,89.77
2019-03-18T06:43:56.732Z,89.77
2019-03-18T06:44:56.748Z,89.62
2019-03-18T06:45:56.815Z,89.67
2019-03-18T06:46:56.703Z,90.14
2019-03-18T06:48:04.741Z,89.77
2019-03-18T06:48:57.694Z,90.25
2019-03-18T06:49:56.742Z,89.73
2019-03-18T06:50:56.690Z,89.11
2019-03-18T06:51:56.646Z,88.90
2019-03-18T06:52:56.654Z,88.79
2019-03-18T06:53:56.616Z,88.39
2019-03-18T06:54:56.623Z,88.24
2019-03-18T06:55:56.615Z,88.45
2019-03-18T06:56:56.723Z,88.55
2019-03-18T06:57:57.650Z,88.34
2019-03-18T06:58:56.565Z,88.65
2019-03-18T06:59:56.562Z,88.55
2019-03-18T07:00:56.558Z,88.76
2019-03-18T07:01:56.533Z,88.76
2019-03-18T07:02:56.643Z,88.65
2019-03-18T07:03:56.509Z,88.76
2019-03-18T07:04:56.538Z,88.55
2019-03-18T07:05:56.484Z,88.86
2019-03-18T07:06:56.474Z,88.65
2019-03-18T07:07:56.466Z,87.72
2019-03-18T07:08:56.493Z,87.82
2019-03-18T07:09:56.457Z,87.82
2019-03-18T07:10:56.434Z,88.82
2019-03-18T07:11:56.425Z,88.82
2019-03-18T07:12:56.413Z,87.88
2019-03-18T07:13:56.410Z,87.37
2019-03-18T07:14:56.518Z,87.37
2019-03-18T07:15:56.407Z,87.06
2019-03-18T07:16:56.382Z,87.37
2019-03-18T07:17:56.357Z,87.27
2019-03-18T07:18:56.354Z,86.85
2019-03-18T07:19:56.336Z,86.85
2019-03-18T07:20:56.450Z,86.19
2019-03-18T07:21:56.339Z,85.82
2019-03-18T07:22:56.305Z,85.36
2019-03-18T07:23:56.296Z,85.99
2019-03-18T07:24:56.278Z,85.68
2019-03-18T07:25:56.270Z,85.26
2019-03-18T07:26:56.404Z,84.95
2019-03-18T07:27:56.265Z,85.57
2019-03-18T07:28:56.240Z,85.47
2019-03-18T07:29:56.230Z,85.63
2019-03-18T07:30:56.214Z,85.63
2019-03-18T07:31:56.204Z,85.11
2019-03-18T07:32:56.320Z,85.11
2019-03-18T07:33:56.210Z,84.77
2019-03-18T07:34:56.179Z,85.08
2019-03-18T07:35:56.161Z,84.15
2019-03-18T07:36:56.712Z,84.97
2019-03-18T07:37:56.151Z,84.63
2019-03-18T07:38:56.265Z,83.59
2019-03-18T07:39:56.125Z,84.00
2019-03-18T07:40:56.109Z,83.59
2019-03-18T07:41:56.113Z,84.00
2019-03-18T07:42:56.083Z,84.11
2019-03-18T07:43:56.088Z,83.70
2019-03-18T07:44:56.139Z,83.70
2019-03-18T07:45:56.062Z,83.86
2019-03-18T07:46:56.042Z,84.00
2019-03-18T07:47:56.099Z,83.45
2019-03-18T07:48:56.022Z,83.28
2019-03-18T07:49:56.028Z,83.59
2019-03-18T07:50:56.122Z,83.80
2019-03-18T07:51:55.994Z,84.21
2019-03-18T07:52:55.993Z,84.17
2019-03-18T07:53:55.968Z,83.18
2019-03-18T07:54:55.955Z,83.80
2019-03-18T07:55:55.956Z,83.80
2019-03-18T07:56:55.960Z,84.21
2019-03-18T07:57:55.924Z,83.70
2019-03-18T07:58:55.913Z,83.59
2019-03-18T07:59:55.901Z,83.07
2019-03-18T08:00:55.951Z,83.70
2019-03-18T08:01:55.877Z,84.31
2019-03-18T08:02:56.000Z,84.52
2019-03-18T08:03:55.874Z,84.17
2019-03-18T08:04:55.851Z,83.80
2019-03-18T08:05:55.838Z,83.18
2019-03-18T08:06:55.827Z,82.87
2019-03-18T08:08:04.547Z,83.55
2019-03-18T08:08:55.807Z,83.80
2019-03-18T08:10:03.360Z,83.86
2019-03-18T08:10:55.783Z,84.52
2019-03-18T08:11:55.932Z,83.45
2019-03-18T08:12:55.762Z,83.49
2019-03-18T08:13:55.899Z,83.28
2019-03-18T08:14:55.767Z,83.70
2019-03-18T08:15:55.727Z,83.07
2019-03-18T08:16:55.718Z,83.42
2019-03-18T08:17:55.723Z,84.00
2019-03-18T08:18:55.693Z,84.42
2019-03-18T08:19:55.809Z,84.00
2019-03-18T08:20:55.675Z,83.63
2019-03-18T08:21:55.664Z,83.11
2019-03-18T08:22:55.659Z,83.18
2019-03-18T08:23:55.755Z,82.87
2019-03-18T08:24:55.636Z,83.28
2019-03-18T08:25:55.800Z,83.59
2019-03-18T08:26:55.648Z,83.49
2019-03-18T08:27:55.614Z,84.11
2019-03-18T08:28:55.586Z,84.21
2019-03-18T08:29:55.583Z,84.42
2019-03-18T08:30:55.598Z,81.59
2019-03-18T08:31:55.725Z,83.14
2019-03-18T08:32:55.599Z,82.21
2019-03-18T08:33:55.542Z,81.66
2019-03-18T08:34:55.562Z,81.04
2019-03-18T08:35:55.515Z,80.62
2019-03-18T08:36:55.505Z,81.10
2019-03-18T08:37:55.620Z,79.62
2019-03-18T08:38:55.487Z,79.11
2019-03-18T08:39:55.473Z,79.52
2019-03-18T08:40:55.465Z,80.20
2019-03-18T08:41:55.466Z,81.03
2019-03-18T08:42:55.444Z,79.65
2019-03-18T08:43:55.572Z,78.31
2019-03-18T08:44:55.428Z,78.45
2019-03-18T08:45:55.424Z,78.86
2019-03-18T08:46:55.411Z,79.58
2019-03-18T08:47:55.386Z,77.62
2019-03-18T08:48:56.199Z,78.55
2019-03-18T08:49:55.427Z,78.86
2019-03-18T08:50:55.347Z,76.08
2019-03-18T08:51:55.347Z,76.59
2019-03-18T08:52:55.328Z,76.42
2019-03-18T08:53:55.360Z,77.62
2019-03-18T08:54:55.330Z,77.83
2019-03-18T08:55:55.451Z,77.83
2019-03-18T08:56:55.344Z,77.22
2019-03-18T08:57:55.287Z,76.49
2019-03-18T08:58:55.270Z,75.39
2019-03-18T08:59:55.276Z,76.21
2019-03-18T09:00:55.274Z,77.04
2019-03-18T09:01:55.284Z,76.80
2019-03-18T09:02:56.483Z,76.18
2019-03-18T09:03:55.242Z,76.39
2019-03-18T09:04:55.224Z,75.84
2019-03-18T09:05:55.214Z,75.84
2019-03-18T09:06:55.171Z,76.42
2019-03-18T09:07:55.287Z,76.32
2019-03-18T09:08:55.150Z,74.67
2019-03-18T09:09:55.153Z,74.16
2019-03-18T09:10:55.125Z,74.74
2019-03-18T09:11:55.124Z,75.97
2019-03-18T09:12:55.135Z,73.81
2019-03-18T09:13:55.161Z,74.29
2019-03-18T09:14:55.099Z,74.77
2019-03-18T09:15:55.078Z,73.64
2019-03-18T09:16:55.096Z,72.85
2019-03-18T09:17:55.057Z,72.37
2019-03-18T09:18:55.061Z,73.50
2019-03-18T09:19:55.151Z,74.29
2019-03-18T09:20:55.031Z,73.44
2019-03-18T09:21:55.006Z,73.64
2019-03-18T09:22:55.025Z,73.61
2019-03-18T09:23:54.994Z,73.23
2019-03-18T09:24:55.115Z,73.13
2019-03-18T09:25:55.089Z,73.23
2019-03-18T09:27:02.321Z,71.72
2019-03-18T09:27:55.963Z,73.98
2019-03-18T09:28:54.998Z,72.99
2019-03-18T09:29:54.991Z,74.02
2019-03-18T09:30:54.911Z,73.50
2019-03-18T09:31:54.940Z,72.99
2019-03-18T09:32:54.898Z,72.37
2019-03-18T09:33:54.962Z,71.55
2019-03-18T09:34:54.966Z,72.51
2019-03-18T09:35:54.954Z,72.41
2019-03-18T09:36:54.911Z,71.69
2019-03-18T09:37:54.885Z,72.68
2019-03-18T09:38:54.821Z,73.02
2019-03-18T09:39:54.817Z,71.92
2019-03-18T09:40:54.806Z,71.79
2019-03-18T09:41:54.790Z,72.54
2019-03-18T09:43:03.622Z,73.91
2019-03-18T09:43:54.781Z,74.43
2019-03-18T09:44:54.762Z,74.63
2019-03-18T09:45:54.758Z,75.15
2019-03-18T09:46:54.750Z,75.05
2019-03-18T09:47:56.293Z,74.43
2019-03-18T09:48:54.739Z,75.15
2019-03-18T09:49:54.712Z,73.30
2019-03-18T09:50:54.711Z,74.50
2019-03-18T09:51:54.679Z,73.47
2019-03-18T09:52:54.744Z,71.75
2019-03-18T09:53:54.676Z,72.34
2019-03-18T09:54:54.688Z,71.72
2019-03-18T09:55:54.659Z,72.96
2019-03-18T09:56:54.631Z,72.51
2019-03-18T09:57:54.619Z,70.76
2019-03-18T09:58:54.638Z,69.49
2019-03-18T09:59:54.652Z,71.34
2019-03-18T10:00:55.549Z,71.14
2019-03-18T10:01:54.571Z,71.86
2019-03-18T10:02:54.567Z,71.37
2019-03-18T10:03:54.551Z,71.17
2019-03-18T10:04:54.541Z,71.37
2019-03-18T10:05:54.554Z,70.35
2019-03-18T10:06:54.690Z,70.86
2019-03-18T10:07:54.506Z,71.75
2019-03-18T10:08:54.497Z,71.48
2019-03-18T10:09:54.488Z,71.55
2019-03-18T10:10:54.477Z,72.27
2019-03-18T10:11:54.466Z,71.66
2019-03-18T10:12:54.609Z,71.07
2019-03-18T10:13:54.436Z,70.04
2019-03-18T10:14:54.430Z,69.56
2019-03-18T10:15:54.413Z,71.82
2019-03-18T10:16:54.405Z,72.78
2019-03-18T10:17:54.391Z,71.24
2019-03-18T10:18:54.533Z,74.63
2019-03-18T10:19:54.375Z,77.00
2019-03-18T10:20:54.380Z,77.04
2019-03-18T10:21:54.361Z,78.14
2019-03-18T10:22:54.346Z,79.14
2019-03-18T10:23:54.350Z,80.18
2019-03-18T10:24:54.358Z,81.82
2019-03-18T10:25:54.402Z,82.38
2019-03-18T10:26:54.293Z,82.62
2019-03-18T10:27:54.293Z,83.83
2019-03-18T10:28:54.390Z,84.79
2019-03-18T10:29:54.332Z,84.55
2019-03-18T10:30:54.490Z,85.00
2019-03-18T10:31:54.246Z,85.17
2019-03-18T10:33:01.803Z,86.34
2019-03-18T10:34:01.881Z,86.28
2019-03-18T10:34:54.365Z,86.79
2019-03-18T10:35:54.359Z,85.70
2019-03-18T10:36:54.308Z,84.60
2019-03-18T10:37:54.187Z,84.78
2019-03-18T10:38:54.210Z,85.19
2019-03-18T10:39:54.168Z,85.78
2019-03-18T10:40:54.141Z,85.71
2019-03-18T10:41:54.139Z,85.92
2019-03-18T10:42:54.160Z,86.50
2019-03-18T10:43:54.129Z,86.67
2019-03-18T10:44:54.104Z,86.77
2019-03-18T10:45:54.111Z,86.98
2019-03-18T10:46:54.325Z,86.88
2019-03-18T10:47:55.009Z,87.60
2019-03-18T10:48:55.213Z,87.56
2019-03-18T10:49:54.126Z,87.76
2019-03-18T10:50:54.053Z,87.15
2019-03-18T10:51:54.151Z,87.56
2019-03-18T10:52:54.057Z,88.32
2019-03-18T10:53:54.147Z,87.18
2019-03-18T10:54:54.241Z,86.88
2019-03-18T10:55:53.979Z,87.49
2019-03-18T10:56:54.159Z,86.05
2019-03-18T10:57:53.966Z,85.22
2019-03-18T10:58:53.949Z,84.81
2019-03-18T10:59:53.934Z,85.70
2019-03-18T11:00:55.219Z,86.42
2019-03-18T11:01:54.936Z,86.57
2019-03-18T11:02:53.964Z,85.49
2019-03-18T11:03:54.148Z,85.18
2019-03-18T11:04:54.006Z,84.97
2019-03-18T11:05:53.954Z,83.90
2019-03-18T11:06:54.341Z,83.65
2019-03-18T11:07:53.987Z,83.58
2019-03-18T11:08:53.912Z,82.71
2019-03-18T11:09:54.881Z,80.58
2019-03-18T11:10:54.015Z,80.47
2019-03-18T11:11:53.879Z,79.41
2019-03-18T11:12:55.187Z,80.54
2019-03-18T11:14:00.936Z,78.24
2019-03-18T11:14:58.242Z,79.16
2019-03-18T11:16:03.988Z,78.75
2019-03-18T11:17:24.103Z,77.51
2019-03-18T11:18:38.138Z,77.28
2019-03-18T11:19:05.907Z,77.17
2019-03-18T11:19:58.702Z,76.56
2019-03-18T11:20:59.276Z,74.60
2019-03-18T11:22:02.783Z,77.00
2019-03-18T11:22:56.978Z,74.26
2019-03-18T11:24:01.702Z,75.56
2019-03-18T11:25:01.658Z,74.84
2019-03-18T11:26:06.040Z,75.15
2019-03-18T11:27:56.566Z,72.81
2019-03-18T11:28:57.720Z,73.33
2019-03-18T11:29:58.936Z,74.77
2019-03-18T11:30:55.165Z,75.15
2019-03-18T11:31:54.891Z,75.52
2019-03-18T11:32:53.628Z,75.01
2019-03-18T11:33:53.581Z,75.59
2019-03-18T11:34:53.568Z,74.15
2019-03-18T11:35:55.720Z,72.20
2019-03-18T11:36:53.616Z,72.96
2019-03-18T11:37:53.521Z,73.95
2019-03-18T11:38:53.510Z,74.60
2019-03-18T11:39:53.503Z,75.21
2019-03-18T11:40:53.490Z,74.98
2019-03-18T11:41:53.603Z,74.36
2019-03-18T11:42:53.467Z,74.67
2019-03-18T11:43:53.456Z,73.54
2019-03-18T11:44:53.472Z,74.77
2019-03-18T11:45:53.441Z,75.87
2019-03-18T11:46:53.429Z,72.82
2019-03-18T11:47:53.552Z,72.85
2019-03-18T11:48:53.414Z,72.75
2019-03-18T11:49:53.402Z,74.19
2019-03-18T11:50:53.378Z,74.19
2019-03-18T11:51:53.380Z,73.36
2019-03-18T11:52:53.384Z,73.06
2019-03-18T11:53:53.468Z,71.51
2019-03-18T11:54:53.382Z,68.30
2019-03-18T11:55:53.401Z,68.37
2019-03-18T11:56:53.312Z,71.31
2019-03-18T11:57:53.350Z,72.75
2019-03-18T11:58:53.295Z,70.39
2019-03-18T11:59:53.420Z,69.29
2019-03-18T12:00:53.271Z,70.73
2019-03-18T12:01:53.290Z,69.43
2019-03-18T12:02:53.260Z,71.31
2019-03-18T12:03:53.262Z,71.66
2019-03-18T12:04:53.252Z,70.73
2019-03-18T12:05:53.354Z,69.53
2019-03-18T12:06:53.364Z,72.09
2019-03-18T12:07:53.373Z,75.67
2019-03-18T12:08:53.184Z,77.28
2019-03-18T12:09:53.174Z,78.69
2019-03-18T12:10:53.161Z,81.79
2019-03-18T12:11:53.294Z,80.28
2019-03-18T12:12:53.202Z,78.94
2019-03-18T12:13:53.139Z,81.93
2019-03-18T12:14:53.119Z,81.93
2019-03-18T12:15:53.145Z,81.41
2019-03-18T12:16:53.195Z,81.31
2019-03-18T12:17:53.197Z,82.61
2019-03-18T12:18:53.103Z,81.54
2019-03-18T12:19:53.076Z,82.64
2019-03-18T12:20:53.063Z,78.24
2019-03-18T12:21:53.049Z,77.52
2019-03-18T12:22:53.040Z,78.62
2019-03-18T12:23:53.774Z,76.28
2019-03-18T12:24:53.019Z,74.46
2019-03-18T12:25:53.016Z,76.55
2019-03-18T12:26:52.987Z,75.87
2019-03-18T12:27:52.977Z,73.47
2019-03-18T12:28:52.976Z,72.34
2019-03-18T12:29:53.149Z,69.37
2019-03-18T12:31:00.652Z,72.41
2019-03-18T12:32:00.551Z,73.81
2019-03-18T12:33:00.910Z,73.88
2019-03-18T12:34:01.796Z,71.24
2019-03-18T12:34:52.952Z,71.48
2019-03-18T12:35:53.017Z,71.78
2019-03-18T12:36:52.989Z,74.40
2019-03-18T12:37:52.902Z,74.40
2019-03-18T12:38:52.878Z,73.16
2019-03-18T12:39:52.951Z,74.50
2019-03-18T12:40:52.841Z,73.68
2019-03-18T12:41:53.057Z,73.98
2019-03-18T12:42:52.825Z,75.63
2019-03-18T12:43:52.809Z,74.08
2019-03-18T12:44:52.822Z,74.50
2019-03-18T12:45:52.815Z,72.54
2019-03-18T12:46:52.865Z,75.22
2019-03-18T12:47:52.826Z,73.98
2019-03-18T12:48:52.757Z,74.50
2019-03-18T12:49:52.737Z,74.57
2019-03-18T12:50:56.173Z,75.08
2019-03-18T12:51:52.715Z,74.84
2019-03-18T12:52:52.703Z,75.46